Huvudsida
METAR-TAF:

METAR-TAF

Flygplatser :

Villmanstrands flygplats

Villmanstrand, Finland

latitud: 61-02-45N, longitud: 028-08-55E, höjd: 106 m

Aktuellt väderrapport

Denna rapport gjordes för 32 minuter sedan, klockan 11:50 UTC
Vind 6 kt från nord
Temperatur -2°C
Fuktighet 93%
Tryck 1014 hPa
Sikt 10 km eller mer
Mulet på en höjd av 400 ft

METAR: EFLP 111150Z AUTO 01006KT 9999 OVC004 M02/M03 Q1014

Tid: 14:22 (12:22 UTC)


TAF: saknas

Aktuella väderrapporter och prognoser från 4000 flygplatser (METAR- och TAF-rapporter).

De tillgängliga stationerna syns som gula och röda prickar på kartan.

För musen över prickarna för att se namnen på stationerna.

Klicka sedan för att få väderrapporter och prognoser.

För att ändra kartan: Klicka på de gröna knapparna med ett svart kors på för att zooma in; den gröna knappen med ett streck på för att zooma ut; eller på de gröna pilarna för angränsande kartor.


METAR-TAF: